sensor_id;sensor_type;location;lat;lon;timestamp;P1;durP1;ratioP1;P2;durP2;ratioP2
6251;SDS011;3159;52.414;9.784;2022-08-23T00:01:40;2.70;;;1.90;;
6251;SDS011;3159;52.414;9.784;2022-08-23T00:04:11;3.30;;;1.63;;
6251;SDS011;3159;52.414;9.784;2022-08-23T00:06:40;4.50;;;1.97;;
6251;SDS011;3159;52.414;9.784;2022-08-23T00:09:07;4.13;;;1.80;;
6251;SDS011;3159;52.414;9.784;2022-08-23T00:11:37;3.33;;;1.63;;
6251;SDS011;3159;52.414;9.784;2022-08-23T00:14:06;6.97;;;1.67;;
6251;SDS011;3159;52.414;9.784;2022-08-23T00:16:36;3.80;;;1.50;;
6251;SDS011;3159;52.414;9.784;2022-08-23T00:19:04;2.43;;;1.50;;
6251;SDS011;3159;52.414;9.784;2022-08-23T00:21:32;2.37;;;1.70;;
6251;SDS011;3159;52.414;9.784;2022-08-23T00:23:59;2.40;;;1.20;;
6251;SDS011;3159;52.414;9.784;2022-08-23T00:26:26;2.53;;;1.63;;
6251;SDS011;3159;52.414;9.784;2022-08-23T00:29:14;2.40;;;1.40;;
6251;SDS011;3159;52.414;9.784;2022-08-23T00:31:41;4.27;;;1.70;;
6251;SDS011;3159;52.414;9.784;2022-08-23T00:34:07;4.67;;;1.40;;
6251;SDS011;3159;52.414;9.784;2022-08-23T00:36:34;4.03;;;1.67;;
6251;SDS011;3159;52.414;9.784;2022-08-23T00:39:02;2.90;;;1.47;;
6251;SDS011;3159;52.414;9.784;2022-08-23T00:41:29;2.10;;;1.27;;
6251;SDS011;3159;52.414;9.784;2022-08-23T00:43:57;3.77;;;1.70;;
6251;SDS011;3159;52.414;9.784;2022-08-23T00:46:44;2.53;;;1.63;;
6251;SDS011;3159;52.414;9.784;2022-08-23T00:49:31;4.83;;;1.63;;
6251;SDS011;3159;52.414;9.784;2022-08-23T00:52:01;3.17;;;1.60;;
6251;SDS011;3159;52.414;9.784;2022-08-23T00:54:31;4.40;;;1.73;;
6251;SDS011;3159;52.414;9.784;2022-08-23T00:57:00;3.33;;;1.60;;
6251;SDS011;3159;52.414;9.784;2022-08-23T00:59:30;1.67;;;1.10;;
6251;SDS011;3159;52.414;9.784;2022-08-23T01:01:59;3.10;;;1.30;;
6251;SDS011;3159;52.414;9.784;2022-08-23T01:04:27;2.83;;;1.63;;
6251;SDS011;3159;52.414;9.784;2022-08-23T01:07:00;4.03;;;1.80;;
6251;SDS011;3159;52.414;9.784;2022-08-23T01:09:29;3.87;;;1.87;;
6251;SDS011;3159;52.414;9.784;2022-08-23T01:11:57;3.30;;;1.50;;
6251;SDS011;3159;52.414;9.784;2022-08-23T01:14:30;2.30;;;1.40;;
6251;SDS011;3159;52.414;9.784;2022-08-23T01:17:02;5.13;;;1.60;;
6251;SDS011;3159;52.414;9.784;2022-08-23T01:19:34;2.90;;;1.30;;
6251;SDS011;3159;52.414;9.784;2022-08-23T01:22:05;4.37;;;1.70;;
6251;SDS011;3159;52.414;9.784;2022-08-23T01:24:37;5.03;;;1.70;;
6251;SDS011;3159;52.414;9.784;2022-08-23T01:27:05;2.43;;;1.57;;
6251;SDS011;3159;52.414;9.784;2022-08-23T01:29:34;3.50;;;1.50;;
6251;SDS011;3159;52.414;9.784;2022-08-23T01:32:01;2.10;;;1.50;;
6251;SDS011;3159;52.414;9.784;2022-08-23T01:34:28;1.67;;;1.30;;
6251;SDS011;3159;52.414;9.784;2022-08-23T01:36:55;2.37;;;1.40;;
6251;SDS011;3159;52.414;9.784;2022-08-23T01:39:23;2.70;;;1.60;;
6251;SDS011;3159;52.414;9.784;2022-08-23T01:41:52;2.57;;;2.30;;
6251;SDS011;3159;52.414;9.784;2022-08-23T01:44:19;2.43;;;1.40;;
6251;SDS011;3159;52.414;9.784;2022-08-23T01:46:46;5.63;;;2.03;;
6251;SDS011;3159;52.414;9.784;2022-08-23T01:49:13;6.43;;;2.53;;
6251;SDS011;3159;52.414;9.784;2022-08-23T01:51:40;2.60;;;1.50;;
6251;SDS011;3159;52.414;9.784;2022-08-23T01:54:08;1.73;;;1.57;;
6251;SDS011;3159;52.414;9.784;2022-08-23T01:56:35;3.47;;;1.80;;
6251;SDS011;3159;52.414;9.784;2022-08-23T01:59:04;2.37;;;1.40;;
6251;SDS011;3159;52.414;9.784;2022-08-23T02:01:32;5.00;;;1.63;;
6251;SDS011;3159;52.414;9.784;2022-08-23T02:03:59;3.43;;;1.57;;
6251;SDS011;3159;52.414;9.784;2022-08-23T02:06:26;3.87;;;1.60;;
6251;SDS011;3159;52.414;9.784;2022-08-23T02:08:53;5.43;;;1.70;;
6251;SDS011;3159;52.414;9.784;2022-08-23T02:11:27;3.07;;;1.80;;
6251;SDS011;3159;52.414;9.784;2022-08-23T02:13:56;4.10;;;1.60;;
6251;SDS011;3159;52.414;9.784;2022-08-23T02:16:27;3.00;;;1.87;;
6251;SDS011;3159;52.414;9.784;2022-08-23T02:18:57;2.50;;;1.50;;
6251;SDS011;3159;52.414;9.784;2022-08-23T02:21:26;3.53;;;1.50;;
6251;SDS011;3159;52.414;9.784;2022-08-23T02:23:55;5.93;;;2.00;;
6251;SDS011;3159;52.414;9.784;2022-08-23T02:26:22;3.93;;;1.47;;
6251;SDS011;3159;52.414;9.784;2022-08-23T02:28:49;4.00;;;1.90;;
6251;SDS011;3159;52.414;9.784;2022-08-23T02:31:17;5.83;;;2.10;;
6251;SDS011;3159;52.414;9.784;2022-08-23T02:33:46;2.90;;;1.80;;
6251;SDS011;3159;52.414;9.784;2022-08-23T02:36:13;2.60;;;1.50;;
6251;SDS011;3159;52.414;9.784;2022-08-23T02:38:41;2.93;;;1.47;;
6251;SDS011;3159;52.414;9.784;2022-08-23T02:41:08;7.07;;;1.90;;
6251;SDS011;3159;52.414;9.784;2022-08-23T02:43:35;4.60;;;1.57;;
6251;SDS011;3159;52.414;9.784;2022-08-23T02:46:03;4.33;;;1.67;;
6251;SDS011;3159;52.414;9.784;2022-08-23T02:48:30;2.07;;;1.37;;
6251;SDS011;3159;52.414;9.784;2022-08-23T02:50:59;2.83;;;1.47;;
6251;SDS011;3159;52.414;9.784;2022-08-23T02:53:27;2.90;;;1.70;;
6251;SDS011;3159;52.414;9.784;2022-08-23T02:55:55;2.83;;;1.80;;
6251;SDS011;3159;52.414;9.784;2022-08-23T02:58:22;4.37;;;1.63;;
6251;SDS011;3159;52.414;9.784;2022-08-23T03:00:50;3.03;;;2.10;;
6251;SDS011;3159;52.414;9.784;2022-08-23T03:03:19;4.00;;;1.70;;
6251;SDS011;3159;52.414;9.784;2022-08-23T03:05:46;2.17;;;1.50;;
6251;SDS011;3159;52.414;9.784;2022-08-23T03:08:15;3.23;;;1.77;;
6251;SDS011;3159;52.414;9.784;2022-08-23T03:10:42;3.33;;;2.10;;
6251;SDS011;3159;52.414;9.784;2022-08-23T03:13:10;2.23;;;1.67;;
6251;SDS011;3159;52.414;9.784;2022-08-23T03:15:37;2.80;;;1.70;;
6251;SDS011;3159;52.414;9.784;2022-08-23T03:18:04;4.73;;;1.67;;
6251;SDS011;3159;52.414;9.784;2022-08-23T03:20:32;4.63;;;2.00;;
6251;SDS011;3159;52.414;9.784;2022-08-23T03:22:59;3.47;;;2.10;;
6251;SDS011;3159;52.414;9.784;2022-08-23T03:25:28;3.30;;;1.60;;
6251;SDS011;3159;52.414;9.784;2022-08-23T03:27:54;3.27;;;1.60;;
6251;SDS011;3159;52.414;9.784;2022-08-23T03:30:22;5.07;;;1.97;;
6251;SDS011;3159;52.414;9.784;2022-08-23T03:32:49;4.00;;;2.00;;
6251;SDS011;3159;52.414;9.784;2022-08-23T03:35:16;2.77;;;1.77;;
6251;SDS011;3159;52.414;9.784;2022-08-23T03:37:43;3.10;;;1.77;;
6251;SDS011;3159;52.414;9.784;2022-08-23T03:40:10;4.33;;;1.90;;
6251;SDS011;3159;52.414;9.784;2022-08-23T03:42:39;2.43;;;1.70;;
6251;SDS011;3159;52.414;9.784;2022-08-23T03:45:06;2.23;;;1.67;;
6251;SDS011;3159;52.414;9.784;2022-08-23T03:47:33;2.80;;;1.70;;
6251;SDS011;3159;52.414;9.784;2022-08-23T03:50:00;4.47;;;2.00;;
6251;SDS011;3159;52.414;9.784;2022-08-23T03:52:27;4.13;;;1.60;;
6251;SDS011;3159;52.414;9.784;2022-08-23T03:54:54;3.50;;;1.67;;
6251;SDS011;3159;52.414;9.784;2022-08-23T03:57:21;2.33;;;1.80;;
6251;SDS011;3159;52.414;9.784;2022-08-23T03:59:49;3.60;;;1.90;;
6251;SDS011;3159;52.414;9.784;2022-08-23T04:02:16;2.30;;;1.47;;
6251;SDS011;3159;52.414;9.784;2022-08-23T04:04:43;3.30;;;1.70;;
6251;SDS011;3159;52.414;9.784;2022-08-23T04:07:10;4.90;;;2.47;;
6251;SDS011;3159;52.414;9.784;2022-08-23T04:09:37;2.00;;;1.40;;
6251;SDS011;3159;52.414;9.784;2022-08-23T04:12:04;2.40;;;1.90;;
6251;SDS011;3159;52.414;9.784;2022-08-23T04:14:32;2.67;;;1.90;;
6251;SDS011;3159;52.414;9.784;2022-08-23T04:17:01;3.67;;;1.80;;
6251;SDS011;3159;52.414;9.784;2022-08-23T04:19:28;3.27;;;1.93;;
6251;SDS011;3159;52.414;9.784;2022-08-23T04:21:55;3.63;;;1.97;;
6251;SDS011;3159;52.414;9.784;2022-08-23T04:24:22;3.67;;;2.10;;
6251;SDS011;3159;52.414;9.784;2022-08-23T04:26:49;2.60;;;1.80;;
6251;SDS011;3159;52.414;9.784;2022-08-23T04:29:16;2.77;;;2.13;;
6251;SDS011;3159;52.414;9.784;2022-08-23T04:31:43;2.23;;;1.80;;
6251;SDS011;3159;52.414;9.784;2022-08-23T04:34:12;3.23;;;2.20;;
6251;SDS011;3159;52.414;9.784;2022-08-23T04:36:41;5.33;;;2.00;;
6251;SDS011;3159;52.414;9.784;2022-08-23T04:39:11;3.67;;;2.33;;
6251;SDS011;3159;52.414;9.784;2022-08-23T04:41:38;3.40;;;2.33;;
6251;SDS011;3159;52.414;9.784;2022-08-23T04:44:28;3.60;;;1.80;;
6251;SDS011;3159;52.414;9.784;2022-08-23T04:46:55;2.37;;;1.80;;
6251;SDS011;3159;52.414;9.784;2022-08-23T04:49:23;3.93;;;2.10;;
6251;SDS011;3159;52.414;9.784;2022-08-23T04:51:50;3.20;;;2.33;;
6251;SDS011;3159;52.414;9.784;2022-08-23T04:54:17;3.23;;;2.20;;
6251;SDS011;3159;52.414;9.784;2022-08-23T04:56:44;4.07;;;2.00;;
6251;SDS011;3159;52.414;9.784;2022-08-23T04:59:11;3.47;;;2.37;;
6251;SDS011;3159;52.414;9.784;2022-08-23T05:01:38;5.03;;;2.23;;
6251;SDS011;3159;52.414;9.784;2022-08-23T05:04:06;4.73;;;2.30;;
6251;SDS011;3159;52.414;9.784;2022-08-23T05:06:35;5.10;;;2.50;;
6251;SDS011;3159;52.414;9.784;2022-08-23T05:09:02;5.13;;;2.50;;
6251;SDS011;3159;52.414;9.784;2022-08-23T05:11:30;7.07;;;2.73;;
6251;SDS011;3159;52.414;9.784;2022-08-23T05:13:57;8.40;;;2.80;;
6251;SDS011;3159;52.414;9.784;2022-08-23T05:16:24;11.00;;;3.47;;
6251;SDS011;3159;52.414;9.784;2022-08-23T05:18:51;10.03;;;3.00;;
6251;SDS011;3159;52.414;9.784;2022-08-23T05:21:19;5.57;;;3.10;;
6251;SDS011;3159;52.414;9.784;2022-08-23T05:23:48;8.63;;;3.07;;
6251;SDS011;3159;52.414;9.784;2022-08-23T05:26:15;8.53;;;3.00;;
6251;SDS011;3159;52.414;9.784;2022-08-23T05:28:43;7.57;;;3.10;;
6251;SDS011;3159;52.414;9.784;2022-08-23T05:31:13;8.83;;;3.33;;
6251;SDS011;3159;52.414;9.784;2022-08-23T05:33:41;9.43;;;3.13;;
6251;SDS011;3159;52.414;9.784;2022-08-23T05:36:10;7.67;;;3.17;;
6251;SDS011;3159;52.414;9.784;2022-08-23T05:38:38;10.40;;;3.97;;
6251;SDS011;3159;52.414;9.784;2022-08-23T05:41:08;10.60;;;3.83;;
6251;SDS011;3159;52.414;9.784;2022-08-23T05:43:35;11.07;;;3.70;;
6251;SDS011;3159;52.414;9.784;2022-08-23T05:46:05;11.03;;;3.73;;
6251;SDS011;3159;52.414;9.784;2022-08-23T05:48:34;8.07;;;3.23;;
6251;SDS011;3159;52.414;9.784;2022-08-23T05:51:09;4.60;;;2.87;;
6251;SDS011;3159;52.414;9.784;2022-08-23T05:53:37;12.03;;;3.30;;
6251;SDS011;3159;52.414;9.784;2022-08-23T05:56:10;5.63;;;3.43;;
6251;SDS011;3159;52.414;9.784;2022-08-23T05:58:38;11.50;;;3.50;;
6251;SDS011;3159;52.414;9.784;2022-08-23T06:01:06;8.53;;;3.20;;
6251;SDS011;3159;52.414;9.784;2022-08-23T06:03:33;13.60;;;3.23;;
6251;SDS011;3159;52.414;9.784;2022-08-23T06:06:00;9.60;;;3.47;;
6251;SDS011;3159;52.414;9.784;2022-08-23T06:08:28;7.40;;;2.70;;
6251;SDS011;3159;52.414;9.784;2022-08-23T06:11:00;5.70;;;2.50;;
6251;SDS011;3159;52.414;9.784;2022-08-23T06:13:29;5.80;;;2.73;;
6251;SDS011;3159;52.414;9.784;2022-08-23T06:15:57;6.10;;;2.67;;
6251;SDS011;3159;52.414;9.784;2022-08-23T06:18:24;4.63;;;2.70;;
6251;SDS011;3159;52.414;9.784;2022-08-23T06:20:58;8.07;;;2.70;;
6251;SDS011;3159;52.414;9.784;2022-08-23T06:23:26;2.43;;;2.10;;
6251;SDS011;3159;52.414;9.784;2022-08-23T06:25:53;5.87;;;2.50;;
6251;SDS011;3159;52.414;9.784;2022-08-23T06:28:20;9.67;;;2.70;;
6251;SDS011;3159;52.414;9.784;2022-08-23T06:30:51;6.30;;;3.20;;
6251;SDS011;3159;52.414;9.784;2022-08-23T06:33:19;4.13;;;2.70;;
6251;SDS011;3159;52.414;9.784;2022-08-23T06:35:46;7.57;;;2.87;;
6251;SDS011;3159;52.414;9.784;2022-08-23T06:38:14;10.00;;;3.83;;
6251;SDS011;3159;52.414;9.784;2022-08-23T06:40:42;11.33;;;3.30;;
6251;SDS011;3159;52.414;9.784;2022-08-23T06:43:09;7.20;;;3.50;;
6251;SDS011;3159;52.414;9.784;2022-08-23T06:45:36;6.47;;;3.10;;
6251;SDS011;3159;52.414;9.784;2022-08-23T06:48:05;7.07;;;3.47;;
6251;SDS011;3159;52.414;9.784;2022-08-23T06:50:33;7.43;;;3.20;;
6251;SDS011;3159;52.414;9.784;2022-08-23T06:53:00;8.70;;;2.97;;
6251;SDS011;3159;52.414;9.784;2022-08-23T06:55:27;11.83;;;3.20;;
6251;SDS011;3159;52.414;9.784;2022-08-23T06:58:06;19.00;;;2.97;;
6251;SDS011;3159;52.414;9.784;2022-08-23T07:00:33;7.13;;;2.67;;
6251;SDS011;3159;52.414;9.784;2022-08-23T07:03:01;7.23;;;2.93;;
6251;SDS011;3159;52.414;9.784;2022-08-23T07:05:30;10.10;;;3.00;;
6251;SDS011;3159;52.414;9.784;2022-08-23T07:07:57;5.47;;;3.17;;
6251;SDS011;3159;52.414;9.784;2022-08-23T07:10:24;7.93;;;3.30;;
6251;SDS011;3159;52.414;9.784;2022-08-23T07:12:51;7.53;;;2.37;;
6251;SDS011;3159;52.414;9.784;2022-08-23T07:15:18;6.03;;;2.13;;
6251;SDS011;3159;52.414;9.784;2022-08-23T07:17:50;7.10;;;2.80;;
6251;SDS011;3159;52.414;9.784;2022-08-23T07:20:26;4.63;;;2.50;;
6251;SDS011;3159;52.414;9.784;2022-08-23T07:23:03;6.10;;;2.80;;
6251;SDS011;3159;52.414;9.784;2022-08-23T07:29:15;4.70;;;2.40;;
6251;SDS011;3159;52.414;9.784;2022-08-23T07:35:33;8.03;;;2.73;;
6251;SDS011;3159;52.414;9.784;2022-08-23T07:41:45;8.40;;;2.67;;
6251;SDS011;3159;52.414;9.784;2022-08-23T07:47:32;7.70;;;2.47;;
6251;SDS011;3159;52.414;9.784;2022-08-23T07:50:18;5.07;;;2.17;;
6251;SDS011;3159;52.414;9.784;2022-08-23T07:53:13;3.60;;;2.20;;
6251;SDS011;3159;52.414;9.784;2022-08-23T08:06:17;2.60;;;1.73;;
6251;SDS011;3159;52.414;9.784;2022-08-23T08:08:57;1.97;;;1.80;;
6251;SDS011;3159;52.414;9.784;2022-08-23T08:11:44;1.83;;;1.53;;
6251;SDS011;3159;52.414;9.784;2022-08-23T08:14:13;3.13;;;1.60;;
6251;SDS011;3159;52.414;9.784;2022-08-23T08:16:43;5.80;;;1.90;;
6251;SDS011;3159;52.414;9.784;2022-08-23T08:19:11;2.50;;;1.63;;
6251;SDS011;3159;52.414;9.784;2022-08-23T08:21:41;4.00;;;1.60;;
6251;SDS011;3159;52.414;9.784;2022-08-23T08:24:10;2.60;;;1.17;;
6251;SDS011;3159;52.414;9.784;2022-08-23T08:26:38;3.13;;;1.33;;
6251;SDS011;3159;52.414;9.784;2022-08-23T08:29:06;2.40;;;1.40;;
6251;SDS011;3159;52.414;9.784;2022-08-23T08:31:36;1.63;;;1.30;;
6251;SDS011;3159;52.414;9.784;2022-08-23T08:34:04;5.07;;;1.60;;
6251;SDS011;3159;52.414;9.784;2022-08-23T08:36:32;2.77;;;1.13;;
6251;SDS011;3159;52.414;9.784;2022-08-23T08:39:02;2.20;;;1.00;;
6251;SDS011;3159;52.414;9.784;2022-08-23T08:41:39;1.20;;;0.90;;
6251;SDS011;3159;52.414;9.784;2022-08-23T08:44:30;2.37;;;1.10;;
6251;SDS011;3159;52.414;9.784;2022-08-23T08:47:05;1.37;;;0.80;;
6251;SDS011;3159;52.414;9.784;2022-08-23T08:49:37;1.90;;;0.80;;
6251;SDS011;3159;52.414;9.784;2022-08-23T08:52:12;5.20;;;1.60;;
6251;SDS011;3159;52.414;9.784;2022-08-23T08:54:43;3.10;;;1.03;;
6251;SDS011;3159;52.414;9.784;2022-08-23T08:57:13;1.13;;;0.87;;
6251;SDS011;3159;52.414;9.784;2022-08-23T08:59:46;2.47;;;0.60;;
6251;SDS011;3159;52.414;9.784;2022-08-23T09:02:21;2.13;;;0.97;;
6251;SDS011;3159;52.414;9.784;2022-08-23T09:05:00;1.87;;;1.10;;
6251;SDS011;3159;52.414;9.784;2022-08-23T09:07:36;1.57;;;0.80;;
6251;SDS011;3159;52.414;9.784;2022-08-23T09:10:16;1.73;;;0.83;;
6251;SDS011;3159;52.414;9.784;2022-08-23T09:13:15;1.13;;;0.87;;
6251;SDS011;3159;52.414;9.784;2022-08-23T09:15:57;3.50;;;0.90;;
6251;SDS011;3159;52.414;9.784;2022-08-23T09:18:30;3.07;;;0.90;;
6251;SDS011;3159;52.414;9.784;2022-08-23T09:21:02;3.27;;;0.73;;
6251;SDS011;3159;52.414;9.784;2022-08-23T09:23:35;2.47;;;0.77;;
6251;SDS011;3159;52.414;9.784;2022-08-23T09:26:15;3.53;;;0.87;;
6251;SDS011;3159;52.414;9.784;2022-08-23T09:28:46;3.53;;;0.93;;
6251;SDS011;3159;52.414;9.784;2022-08-23T09:31:37;1.17;;;0.83;;
6251;SDS011;3159;52.414;9.784;2022-08-23T09:34:18;2.60;;;1.30;;
6251;SDS011;3159;52.414;9.784;2022-08-23T09:40:12;4.03;;;1.10;;
6251;SDS011;3159;52.414;9.784;2022-08-23T09:43:18;2.80;;;1.03;;
6251;SDS011;3159;52.414;9.784;2022-08-23T09:46:01;3.07;;;1.00;;
6251;SDS011;3159;52.414;9.784;2022-08-23T09:48:37;4.80;;;1.10;;
6251;SDS011;3159;52.414;9.784;2022-08-23T09:54:19;2.40;;;0.73;;
6251;SDS011;3159;52.414;9.784;2022-08-23T10:00:32;3.27;;;1.10;;
6251;SDS011;3159;52.414;9.784;2022-08-23T10:07:00;2.00;;;0.77;;
6251;SDS011;3159;52.414;9.784;2022-08-23T10:10:20;1.90;;;0.80;;
6251;SDS011;3159;52.414;9.784;2022-08-23T10:12:56;1.93;;;0.70;;
6251;SDS011;3159;52.414;9.784;2022-08-23T10:18:31;2.50;;;0.83;;
6251;SDS011;3159;52.414;9.784;2022-08-23T10:21:28;1.87;;;0.70;;
6251;SDS011;3159;52.414;9.784;2022-08-23T10:24:19;1.00;;;0.50;;
6251;SDS011;3159;52.414;9.784;2022-08-23T10:30:11;1.87;;;0.80;;
6251;SDS011;3159;52.414;9.784;2022-08-23T10:33:02;1.43;;;0.50;;
6251;SDS011;3159;52.414;9.784;2022-08-23T10:36:00;1.20;;;0.70;;
6251;SDS011;3159;52.414;9.784;2022-08-23T10:38:44;2.00;;;0.73;;
6251;SDS011;3159;52.414;9.784;2022-08-23T10:41:31;2.50;;;0.80;;
6251;SDS011;3159;52.414;9.784;2022-08-23T10:44:38;2.30;;;0.80;;
6251;SDS011;3159;52.414;9.784;2022-08-23T10:47:48;1.27;;;0.60;;
6251;SDS011;3159;52.414;9.784;2022-08-23T10:50:38;1.77;;;0.73;;
6251;SDS011;3159;52.414;9.784;2022-08-23T10:53:17;3.47;;;1.27;;
6251;SDS011;3159;52.414;9.784;2022-08-23T10:55:47;2.33;;;0.97;;
6251;SDS011;3159;52.414;9.784;2022-08-23T10:58:27;2.57;;;0.90;;
6251;SDS011;3159;52.414;9.784;2022-08-23T11:00:59;0.97;;;0.63;;
6251;SDS011;3159;52.414;9.784;2022-08-23T11:03:28;1.37;;;0.97;;
6251;SDS011;3159;52.414;9.784;2022-08-23T11:12:19;1.53;;;0.60;;
6251;SDS011;3159;52.414;9.784;2022-08-23T11:15:02;1.40;;;0.53;;
6251;SDS011;3159;52.414;9.784;2022-08-23T11:17:58;0.93;;;0.70;;
6251;SDS011;3159;52.414;9.784;2022-08-23T11:23:34;0.50;;;0.50;;
6251;SDS011;3159;52.414;9.784;2022-08-23T11:32:18;1.43;;;0.77;;
6251;SDS011;3159;52.414;9.784;2022-08-23T11:42:01;2.40;;;0.40;;
6251;SDS011;3159;52.414;9.784;2022-08-23T11:44:42;1.87;;;0.63;;
6251;SDS011;3159;52.414;9.784;2022-08-23T11:48:07;0.40;;;0.40;;
6251;SDS011;3159;52.414;9.784;2022-08-23T11:50:51;1.03;;;0.80;;
6251;SDS011;3159;52.414;9.784;2022-08-23T11:53:38;2.87;;;0.70;;
6251;SDS011;3159;52.414;9.784;2022-08-23T11:56:37;2.70;;;0.50;;
6251;SDS011;3159;52.414;9.784;2022-08-23T11:59:15;0.70;;;0.60;;
6251;SDS011;3159;52.414;9.784;2022-08-23T12:01:59;0.60;;;0.50;;
6251;SDS011;3159;52.414;9.784;2022-08-23T12:05:19;0.90;;;0.60;;
6251;SDS011;3159;52.414;9.784;2022-08-23T12:11:13;1.93;;;0.80;;
6251;SDS011;3159;52.414;9.784;2022-08-23T12:13:46;0.90;;;0.60;;
6251;SDS011;3159;52.414;9.784;2022-08-23T12:16:28;2.37;;;0.77;;
6251;SDS011;3159;52.414;9.784;2022-08-23T12:19:01;0.60;;;0.50;;
6251;SDS011;3159;52.414;9.784;2022-08-23T12:21:42;2.10;;;0.60;;
6251;SDS011;3159;52.414;9.784;2022-08-23T12:24:21;1.70;;;0.53;;
6251;SDS011;3159;52.414;9.784;2022-08-23T12:27:03;1.70;;;1.00;;
6251;SDS011;3159;52.414;9.784;2022-08-23T12:29:44;1.07;;;0.70;;
6251;SDS011;3159;52.414;9.784;2022-08-23T12:32:18;2.50;;;0.73;;
6251;SDS011;3159;52.414;9.784;2022-08-23T12:35:08;1.37;;;0.70;;
6251;SDS011;3159;52.414;9.784;2022-08-23T12:37:55;2.77;;;0.90;;
6251;SDS011;3159;52.414;9.784;2022-08-23T12:40:35;1.80;;;0.70;;
6251;SDS011;3159;52.414;9.784;2022-08-23T12:43:06;2.50;;;0.60;;
6251;SDS011;3159;52.414;9.784;2022-08-23T12:45:36;1.87;;;0.80;;
6251;SDS011;3159;52.414;9.784;2022-08-23T12:48:08;2.10;;;0.57;;
6251;SDS011;3159;52.414;9.784;2022-08-23T12:50:51;2.50;;;0.60;;
6251;SDS011;3159;52.414;9.784;2022-08-23T12:53:30;2.77;;;0.80;;
6251;SDS011;3159;52.414;9.784;2022-08-23T12:56:03;0.80;;;0.50;;
6251;SDS011;3159;52.414;9.784;2022-08-23T12:58:37;1.43;;;0.77;;
6251;SDS011;3159;52.414;9.784;2022-08-23T13:01:18;1.50;;;0.80;;
6251;SDS011;3159;52.414;9.784;2022-08-23T13:03:58;1.23;;;0.73;;
6251;SDS011;3159;52.414;9.784;2022-08-23T13:06:39;1.03;;;0.60;;
6251;SDS011;3159;52.414;9.784;2022-08-23T13:09:27;0.70;;;0.53;;
6251;SDS011;3159;52.414;9.784;2022-08-23T13:11:57;1.40;;;0.53;;
6251;SDS011;3159;52.414;9.784;2022-08-23T13:14:33;4.43;;;0.70;;
6251;SDS011;3159;52.414;9.784;2022-08-23T13:17:21;0.60;;;0.50;;
6251;SDS011;3159;52.414;9.784;2022-08-23T13:20:15;0.90;;;0.60;;
6251;SDS011;3159;52.414;9.784;2022-08-23T13:22:57;1.37;;;0.80;;
6251;SDS011;3159;52.414;9.784;2022-08-23T13:25:34;1.10;;;0.60;;
6251;SDS011;3159;52.414;9.784;2022-08-23T13:28:07;0.93;;;0.63;;
6251;SDS011;3159;52.414;9.784;2022-08-23T13:30:58;1.20;;;0.70;;
6251;SDS011;3159;52.414;9.784;2022-08-23T13:33:28;1.13;;;0.53;;
6251;SDS011;3159;52.414;9.784;2022-08-23T13:36:04;2.23;;;0.60;;
6251;SDS011;3159;52.414;9.784;2022-08-23T13:38:34;2.40;;;0.80;;
6251;SDS011;3159;52.414;9.784;2022-08-23T13:41:02;2.77;;;0.60;;
6251;SDS011;3159;52.414;9.784;2022-08-23T13:43:35;0.80;;;0.63;;
6251;SDS011;3159;52.414;9.784;2022-08-23T13:46:11;2.37;;;0.83;;
6251;SDS011;3159;52.414;9.784;2022-08-23T13:48:43;0.97;;;0.60;;
6251;SDS011;3159;52.414;9.784;2022-08-23T13:54:01;0.70;;;0.70;;
6251;SDS011;3159;52.414;9.784;2022-08-23T13:56:33;2.97;;;0.70;;
6251;SDS011;3159;52.414;9.784;2022-08-23T13:59:03;3.33;;;0.83;;
6251;SDS011;3159;52.414;9.784;2022-08-23T14:01:42;0.97;;;0.70;;
6251;SDS011;3159;52.414;9.784;2022-08-23T14:04:09;0.97;;;0.67;;
6251;SDS011;3159;52.414;9.784;2022-08-23T14:06:36;2.10;;;1.13;;
6251;SDS011;3159;52.414;9.784;2022-08-23T14:09:03;1.10;;;0.63;;
6251;SDS011;3159;52.414;9.784;2022-08-23T14:11:31;0.80;;;0.80;;
6251;SDS011;3159;52.414;9.784;2022-08-23T14:13:59;1.73;;;0.90;;
6251;SDS011;3159;52.414;9.784;2022-08-23T14:16:27;1.80;;;0.90;;
6251;SDS011;3159;52.414;9.784;2022-08-23T14:18:57;3.53;;;0.87;;
6251;SDS011;3159;52.414;9.784;2022-08-23T14:21:24;1.17;;;0.63;;
6251;SDS011;3159;52.414;9.784;2022-08-23T14:23:52;1.47;;;0.80;;
6251;SDS011;3159;52.414;9.784;2022-08-23T14:26:25;1.20;;;0.77;;
6251;SDS011;3159;52.414;9.784;2022-08-23T14:28:58;1.80;;;0.70;;
6251;SDS011;3159;52.414;9.784;2022-08-23T14:31:32;1.03;;;0.90;;
6251;SDS011;3159;52.414;9.784;2022-08-23T14:34:05;1.43;;;0.70;;
6251;SDS011;3159;52.414;9.784;2022-08-23T14:36:32;1.10;;;0.70;;
6251;SDS011;3159;52.414;9.784;2022-08-23T14:38:59;1.00;;;0.60;;
6251;SDS011;3159;52.414;9.784;2022-08-23T14:41:26;1.53;;;0.50;;
6251;SDS011;3159;52.414;9.784;2022-08-23T14:43:54;1.47;;;0.60;;
6251;SDS011;3159;52.414;9.784;2022-08-23T14:46:22;2.03;;;0.70;;
6251;SDS011;3159;52.414;9.784;2022-08-23T14:48:49;0.60;;;0.60;;
6251;SDS011;3159;52.414;9.784;2022-08-23T14:51:21;4.10;;;0.67;;
6251;SDS011;3159;52.414;9.784;2022-08-23T14:53:53;1.03;;;0.77;;
6251;SDS011;3159;52.414;9.784;2022-08-23T14:56:21;1.90;;;0.60;;
6251;SDS011;3159;52.414;9.784;2022-08-23T14:58:50;1.33;;;0.70;;
6251;SDS011;3159;52.414;9.784;2022-08-23T15:01:17;1.63;;;0.73;;
6251;SDS011;3159;52.414;9.784;2022-08-23T15:03:46;2.53;;;0.67;;
6251;SDS011;3159;52.414;9.784;2022-08-23T15:06:14;2.10;;;0.80;;
6251;SDS011;3159;52.414;9.784;2022-08-23T15:08:52;1.93;;;0.90;;
6251;SDS011;3159;52.414;9.784;2022-08-23T15:11:20;0.90;;;0.80;;
6251;SDS011;3159;52.414;9.784;2022-08-23T15:13:48;4.20;;;0.70;;
6251;SDS011;3159;52.414;9.784;2022-08-23T15:16:19;5.40;;;1.03;;
6251;SDS011;3159;52.414;9.784;2022-08-23T15:18:49;2.30;;;0.80;;
6251;SDS011;3159;52.414;9.784;2022-08-23T15:21:18;2.30;;;0.70;;
6251;SDS011;3159;52.414;9.784;2022-08-23T15:23:46;1.13;;;0.60;;
6251;SDS011;3159;52.414;9.784;2022-08-23T15:26:22;2.37;;;0.83;;
6251;SDS011;3159;52.414;9.784;2022-08-23T15:28:51;0.70;;;0.67;;
6251;SDS011;3159;52.414;9.784;2022-08-23T15:31:19;1.57;;;0.77;;
6251;SDS011;3159;52.414;9.784;2022-08-23T15:33:47;3.97;;;0.73;;
6251;SDS011;3159;52.414;9.784;2022-08-23T15:36:15;2.67;;;0.70;;
6251;SDS011;3159;52.414;9.784;2022-08-23T15:38:43;2.03;;;0.73;;
6251;SDS011;3159;52.414;9.784;2022-08-23T15:41:13;1.93;;;0.80;;
6251;SDS011;3159;52.414;9.784;2022-08-23T15:43:47;1.47;;;0.87;;
6251;SDS011;3159;52.414;9.784;2022-08-23T15:46:17;1.83;;;0.63;;
6251;SDS011;3159;52.414;9.784;2022-08-23T15:48:52;1.10;;;0.90;;
6251;SDS011;3159;52.414;9.784;2022-08-23T15:51:22;5.17;;;0.80;;
6251;SDS011;3159;52.414;9.784;2022-08-23T15:53:52;1.33;;;0.90;;
6251;SDS011;3159;52.414;9.784;2022-08-23T15:56:28;1.20;;;0.60;;
6251;SDS011;3159;52.414;9.784;2022-08-23T15:58:59;1.47;;;0.80;;
6251;SDS011;3159;52.414;9.784;2022-08-23T16:01:27;1.20;;;0.50;;
6251;SDS011;3159;52.414;9.784;2022-08-23T16:04:09;2.07;;;0.70;;
6251;SDS011;3159;52.414;9.784;2022-08-23T16:06:37;1.03;;;0.53;;
6251;SDS011;3159;52.414;9.784;2022-08-23T16:09:06;2.97;;;0.80;;
6251;SDS011;3159;52.414;9.784;2022-08-23T16:11:39;1.27;;;0.80;;
6251;SDS011;3159;52.414;9.784;2022-08-23T16:14:07;1.83;;;0.70;;
6251;SDS011;3159;52.414;9.784;2022-08-23T16:16:36;0.70;;;0.70;;
6251;SDS011;3159;52.414;9.784;2022-08-23T16:19:06;1.40;;;0.73;;
6251;SDS011;3159;52.414;9.784;2022-08-23T16:21:37;2.23;;;0.80;;
6251;SDS011;3159;52.414;9.784;2022-08-23T16:24:11;0.93;;;0.77;;
6251;SDS011;3159;52.414;9.784;2022-08-23T16:26:49;1.23;;;0.90;;
6251;SDS011;3159;52.414;9.784;2022-08-23T16:29:21;0.90;;;0.50;;
6251;SDS011;3159;52.414;9.784;2022-08-23T16:31:56;1.80;;;0.97;;
6251;SDS011;3159;52.414;9.784;2022-08-23T16:34:33;2.30;;;0.80;;
6251;SDS011;3159;52.414;9.784;2022-08-23T16:37:01;1.13;;;0.80;;
6251;SDS011;3159;52.414;9.784;2022-08-23T16:39:34;3.37;;;0.70;;
6251;SDS011;3159;52.414;9.784;2022-08-23T16:42:13;1.43;;;0.73;;
6251;SDS011;3159;52.414;9.784;2022-08-23T16:44:40;2.50;;;0.60;;
6251;SDS011;3159;52.414;9.784;2022-08-23T16:47:13;1.73;;;0.67;;
6251;SDS011;3159;52.414;9.784;2022-08-23T16:49:41;1.70;;;0.80;;
6251;SDS011;3159;52.414;9.784;2022-08-23T16:52:08;2.03;;;0.70;;
6251;SDS011;3159;52.414;9.784;2022-08-23T16:54:35;2.13;;;1.30;;
6251;SDS011;3159;52.414;9.784;2022-08-23T16:57:04;1.47;;;0.80;;
6251;SDS011;3159;52.414;9.784;2022-08-23T16:59:33;3.27;;;0.80;;
6251;SDS011;3159;52.414;9.784;2022-08-23T17:02:01;1.53;;;0.90;;